Kingsteignton, United Kingdom
Current Conditions -  °F | °C
As of 7:50 PM on Sunday 25 Jan 2015 (Local Time) from EGTE Reporting Station
Broken Clouds Broken Clouds  
Wind Chill: 43°   Ceiling: 4000
Heat Index: 46°   Visibility: 5mi
Dew Point: 45°   Wind: 7mph
Humidity: 93%   Direction: 190°S
Pressure: 30.36"   Gusts: NA
Location:  50.55°N, 3.58°W
Report Text: EGTE 251950Z 19006KT 8000 FEW009 SCT016 BKN040 08/07 Q1028
Loading
Personal Weather Stations






























Interactive Weather Map New forecast layout! Learn more

10-Day Weather Forecast

Advertisements
Track Severe Weather on mobile